Time;durP1;ratioP1;P1;durP2;ratioP2;P2;SDS_P1;SDS_P2;PMS_P1;PMS_P2;Temp;Humidity;BMP_temperature;BMP_pressure;BME280_temperature;BME280_humidity;BME280_pressure;Samples;Min_cycle;Max_cycle;Signal;HPM_P1;HPM_P2
2020/12/13 00:00:26;;;;;;;;;;;;;;;14.26;54.19;100933.09;4972724;28;20047;-46
2020/12/13 00:02:53;;;;;;;6.57;3.60;;;;;;;14.34;53.80;100936.13;4976888;28;19956;-44
2020/12/13 00:05:19;;;;;;;4.47;3.03;;;;;;;14.29;54.01;100936.09;4970885;28;20043;-44
2020/12/13 00:07:44;;;;;;;7.35;2.70;;;;;;;14.29;54.30;100938.78;4979668;28;20030;-42
2020/12/13 00:10:10;;;;;;;4.18;2.90;;;;;;;14.36;54.17;100944.75;4976122;28;20042;-43
2020/12/13 00:12:36;;;;;;;6.38;2.47;;;;;;;14.41;53.60;100941.31;4982358;28;20375;-44
2020/12/13 00:15:04;;;;;;;1.45;0.98;;;;;;;14.27;54.64;100938.22;4970618;28;20043;-48
2020/12/13 00:17:29;;;;;;;3.90;1.15;;;;;;;14.48;54.17;100952.66;4978741;28;20088;-45
2020/12/13 00:19:55;;;;;;;3.92;1.65;;;;;;;14.50;54.31;100963.22;4970517;28;20051;-42
2020/12/13 00:22:20;;;;;;;6.93;2.72;;;;;;;14.54;54.27;100959.72;4976473;28;20030;-43
2020/12/13 00:24:46;;;;;;;3.58;2.08;;;;;;;14.55;54.43;100960.50;4972721;28;20041;-43
2020/12/13 00:27:15;;;;;;;7.32;2.80;;;;;;;14.51;54.53;100962.13;4976605;28;20030;-48
2020/12/13 00:29:41;;;;;;;5.82;3.17;;;;;;;14.47;55.02;100966.41;4972886;28;20054;-43
2020/12/13 00:32:06;;;;;;;8.65;4.35;;;;;;;14.48;55.09;100962.63;4974291;28;20085;-44
2020/12/13 00:34:33;;;;;;;4.38;1.95;;;;;;;14.48;55.13;100951.84;4973626;28;20042;-44
2020/12/13 00:36:59;;;;;;;14.48;8.35;;;;;;;14.43;55.23;100952.63;4971923;28;20133;-42
2020/12/13 00:39:25;;;;;;;13.75;8.15;;;;;;;14.46;55.45;100944.03;4973167;28;20400;-43
2020/12/13 00:41:52;;;;;;;5.65;4.80;;;;;;;14.48;55.56;100925.69;4972516;28;20046;-44
2020/12/13 00:44:18;;;;;;;8.10;2.88;;;;;;;14.51;55.41;100914.34;4973680;28;20161;-44
2020/12/13 00:46:44;;;;;;;5.50;2.35;;;;;;;14.46;55.77;100914.34;4972641;28;20395;-41
2020/12/13 00:49:10;;;;;;;15.45;2.63;;;;;;;14.50;55.33;100912.75;4974509;28;20251;-41
2020/12/13 00:51:35;;;;;;;11.77;3.38;;;;;;;14.40;55.66;100917.28;4977616;28;20026;-43
2020/12/13 00:54:00;;;;;;;9.77;2.33;;;;;;;14.33;56.73;100918.31;4976807;28;20046;-47
2020/12/13 00:56:26;;;;;;;3.83;2.22;;;;;;;14.46;56.12;100927.00;4970250;28;20041;-48
2020/12/13 00:58:51;;;;;;;3.85;1.92;;;;;;;14.48;56.06;100922.16;4984684;28;20042;-44
2020/12/13 01:01:17;;;;;;;10.85;1.25;;;;;;;14.49;56.27;100938.09;4983132;28;20034;-44
2020/12/13 01:03:42;;;;;;;3.30;1.30;;;;;;;14.41;56.21;100933.22;4971455;28;20513;-45
2020/12/13 01:06:08;;;;;;;5.72;2.13;;;;;;;14.46;55.81;100941.34;4975019;28;20049;-42
2020/12/13 01:08:33;;;;;;;4.45;1.88;;;;;;;14.44;56.46;100934.56;4971537;28;20034;-45
2020/12/13 01:10:59;;;;;;;5.78;2.00;;;;;;;14.47;56.09;100926.75;4973101;28;20045;-45
2020/12/13 01:13:24;;;;;;;7.82;1.63;;;;;;;14.47;56.88;100918.66;4978867;28;20027;-44
2020/12/13 01:15:51;;;;;;;12.25;2.47;;;;;;;14.27;57.67;100924.75;4982677;28;20904;-42
2020/12/13 01:18:17;;;;;;;5.13;3.42;;;;;;;14.28;58.25;100923.66;4973502;28;20085;-46
2020/12/13 01:20:43;;;;;;;3.28;2.35;;;;;;;14.33;57.85;100931.78;4977442;28;20045;-46
2020/12/13 01:23:08;;;;;;;7.70;4.43;;;;;;;14.29;57.75;100927.19;4979193;28;20429;-45
2020/12/13 01:25:34;;;;;;;4.30;2.60;;;;;;;14.27;57.88;100927.44;4975559;28;20066;-42
2020/12/13 01:27:59;;;;;;;5.25;3.13;;;;;;;14.25;58.30;100926.88;4975696;28;20387;-46
2020/12/13 01:30:25;;;;;;;10.18;3.70;;;;;;;14.24;58.39;100933.34;4974652;28;20420;-44
2020/12/13 01:32:50;;;;;;;6.53;4.28;;;;;;;14.20;59.09;100929.56;4976214;28;20046;-48
2020/12/13 01:35:16;;;;;;;13.85;4.82;;;;;;;14.22;58.85;100940.06;4969605;28;20121;-50
2020/12/13 01:37:42;;;;;;;7.22;2.70;;;;;;;14.27;58.48;100924.75;4979566;28;20042;-45
2020/12/13 01:40:08;;;;;;;13.23;2.83;;;;;;;14.33;58.73;100936.38;4975501;28;20047;-43
2020/12/13 01:42:41;;;;;;;11.75;3.20;;;;;;;14.37;58.18;100935.59;4977292;28;20053;-46
2020/12/13 01:45:10;;;;;;;4.13;2.38;;;;;;;14.36;58.88;100942.06;4972681;28;20073;-44
2020/12/13 01:47:36;;;;;;;0.75;0.40;;;;;;;14.28;58.94;100942.53;4978537;28;20119;-43
2020/12/13 01:50:02;;;;;;;1.95;0.77;;;;;;;14.35;59.10;100953.91;4969144;28;20091;-46
2020/12/13 01:53:13;;;;;;;5.97;1.50;;;;;;;14.38;59.12;100942.63;4982114;28;20034;-47
2020/12/13 01:55:20;;;;;;;4.85;2.25;;;;;;;14.40;59.42;100955.03;4972265;28;20057;-49
2020/12/13 01:57:51;;;;;;;2.75;1.08;;;;;;;14.34;59.76;100944.22;4984441;28;20114;-44
2020/12/13 02:00:17;;;;;;;1.58;1.08;;;;;;;14.31;59.48;100943.91;4971136;28;20057;-44
2020/12/13 02:02:45;;;;;;;2.83;1.17;;;;;;;14.46;59.20;100945.91;4977308;28;20214;-45
2020/12/13 02:05:13;;;;;;;2.88;1.02;;;;;;;14.38;58.90;100947.22;4982242;28;20054;-42
2020/12/13 02:07:41;;;;;;;5.63;1.15;;;;;;;14.37;58.90;100954.50;4974606;28;20343;-46
2020/12/13 02:10:11;;;;;;;9.05;1.55;;;;;;;14.47;58.34;100969.13;4978968;28;20042;-42
2020/12/13 02:12:37;;;;;;;5.13;1.08;;;;;;;14.50;58.46;100982.91;4981234;28;20109;-47
2020/12/13 02:15:06;;;;;;;0.38;0.22;;;;;;;14.50;58.49;100984.78;4981924;28;20070;-45
2020/12/13 02:17:34;;;;;;;1.35;0.82;;;;;;;14.47;58.21;100990.69;4981722;28;20380;-43
2020/12/13 02:20:04;;;;;;;3.08;1.17;;;;;;;14.37;59.17;100986.03;4982599;28;20042;-45
2020/12/13 02:22:30;;;;;;;3.65;0.88;;;;;;;14.33;58.53;100993.03;4982085;28;20038;-45
2020/12/13 02:25:08;;;;;;;1.38;0.98;;;;;;;14.16;58.79;100979.66;4975015;28;20128;-44
2020/12/13 02:27:34;;;;;;;8.55;1.05;;;;;;;14.23;58.04;100964.06;4970948;28;20030;-44
2020/12/13 02:29:59;;;;;;;2.25;0.90;;;;;;;14.32;57.64;100957.16;4977425;28;20118;-45
2020/12/13 02:32:25;;;;;;;6.13;1.30;;;;;;;14.37;57.82;100957.19;4981358;28;20026;-43
2020/12/13 02:34:50;;;;;;;6.57;1.00;;;;;;;14.30;57.77;100948.47;4981194;28;20660;-43
2020/12/13 02:37:16;;;;;;;1.67;0.80;;;;;;;14.24;58.19;100949.53;4979572;28;20054;-45
2020/12/13 02:39:41;;;;;;;0.75;0.52;;;;;;;14.27;58.11;100962.50;4980397;28;20039;-42
2020/12/13 02:42:07;;;;;;;1.55;0.80;;;;;;;14.37;57.75;100957.19;4985744;28;20038;-44
2020/12/13 02:44:32;;;;;;;10.95;1.80;;;;;;;14.45;57.68;100963.16;4984079;28;20109;-47
2020/12/13 02:46:57;;;;;;;1.33;0.60;;;;;;;14.45;58.23;100957.78;4986453;28;20034;-44
2020/12/13 02:49:23;;;;;;;2.70;1.20;;;;;;;14.52;58.06;100963.75;4984962;28;20055;-43
2020/12/13 02:51:48;;;;;;;2.53;0.52;;;;;;;14.27;58.95;100958.97;4981654;28;20735;-42
2020/12/13 02:54:14;;;;;;;4.95;1.58;;;;;;;14.29;59.86;100960.34;4981352;28;20046;-42
2020/12/13 02:56:42;;;;;;;1.02;0.22;;;;;;;14.15;60.16;100951.09;4983596;28;20046;-43
2020/12/13 02:59:07;;;;;;;0.55;0.32;;;;;;;14.20;58.97;100945.75;4984737;28;20073;-45
2020/12/13 03:01:33;;;;;;;5.88;1.02;;;;;;;14.33;58.68;100939.06;4977578;28;20036;-47
2020/12/13 03:03:59;;;;;;;6.15;0.65;;;;;;;14.41;58.37;100933.22;4973898;28;20459;-46
2020/12/13 03:06:24;;;;;;;1.95;0.82;;;;;;;14.47;58.16;100929.44;4976967;28;20038;-44
2020/12/13 03:08:50;;;;;;;4.07;1.17;;;;;;;14.31;58.64;100928.53;4973548;28;20040;-43
2020/12/13 03:11:20;;;;;;;1.33;1.08;;;;;;;14.23;59.16;100929.03;4973503;28;20038;-47
2020/12/13 03:13:50;;;;;;;5.43;0.52;;;;;;;14.23;60.21;100934.41;4984936;28;20487;-47
2020/12/13 03:16:16;;;;;;;0.80;0.57;;;;;;;14.23;59.48;100937.09;4986063;28;20038;-45
2020/12/13 03:18:41;;;;;;;4.38;0.47;;;;;;;14.23;59.26;100947.91;4976265;28;20085;-45
2020/12/13 03:21:07;;;;;;;1.25;0.52;;;;;;;14.31;59.83;100952.81;4974915;28;20496;-45
2020/12/13 03:23:33;;;;;;;7.10;0.82;;;;;;;14.31;58.98;100954.72;4976342;28;20042;-42
2020/12/13 03:25:58;;;;;;;1.65;0.68;;;;;;;14.30;58.25;100961.16;4974704;28;20616;-45
2020/12/13 03:28:24;;;;;;;1.02;0.40;;;;;;;14.32;58.81;100949.06;4975025;28;20041;-41
2020/12/13 03:30:49;;;;;;;8.80;0.68;;;;;;;14.28;59.07;100944.44;4975796;28;20034;-44
2020/12/13 03:33:15;;;;;;;4.50;0.82;;;;;;;14.25;57.79;100947.63;4974548;28;20094;-43
2020/12/13 03:35:40;;;;;;;1.40;0.30;;;;;;;14.30;58.46;100947.69;4976610;28;20538;-45
2020/12/13 03:38:06;;;;;;;8.57;1.45;;;;;;;14.32;56.82;100945.53;4985591;28;20034;-44
2020/12/13 03:40:31;;;;;;;3.33;0.50;;;;;;;14.34;57.73;100944.22;4988385;28;20083;-46
2020/12/13 03:42:57;;;;;;;4.72;1.05;;;;;;;14.32;57.70;100940.97;4977700;28;20085;-41
2020/12/13 03:45:22;;;;;;;0.40;0.40;;;;;;;14.38;57.66;100947.22;5011804;28;20049;-45
2020/12/13 03:47:48;;;;;;;1.88;0.38;;;;;;;14.38;58.14;100948.00;4986357;28;20381;-41
2020/12/13 03:50:16;;;;;;;6.05;0.98;;;;;;;14.40;57.86;100946.94;4986835;28;20058;-46
2020/12/13 03:52:42;;;;;;;2.13;0.70;;;;;;;14.41;58.16;100937.75;4985805;28;20114;-48
2020/12/13 03:55:07;;;;;;;0.68;0.10;;;;;;;14.37;58.45;100941.00;4987071;28;20493;-44
2020/12/13 03:57:32;;;;;;;0.20;0.10;;;;;;;14.19;59.66;100938.72;4972631;28;20054;-44
2020/12/13 03:59:58;;;;;;;2.45;1.08;;;;;;;14.25;58.20;100929.56;4986049;28;20045;-46
2020/12/13 04:02:24;;;;;;;3.15;0.65;;;;;;;14.34;58.38;100928.03;4980122;28;20026;-45
2020/12/13 04:04:49;;;;;;;2.92;0.90;;;;;;;14.39;57.76;100927.22;4972244;28;20521;-44
2020/12/13 04:07:14;;;;;;;0.82;0.45;;;;;;;14.45;57.90;100930.78;4977996;28;20034;-44
2020/12/13 04:09:40;;;;;;;4.70;1.17;;;;;;;14.48;57.73;100930.25;4972924;28;20042;-42
2020/12/13 04:12:05;;;;;;;1.00;0.40;;;;;;;14.48;57.88;100935.66;4975110;28;20030;-45
2020/12/13 04:14:31;;;;;;;1.80;0.57;;;;;;;14.43;58.41;100935.63;4974126;28;20070;-42
2020/12/13 04:16:56;;;;;;;4.70;0.52;;;;;;;14.37;58.65;100946.41;4975422;28;20077;-46
2020/12/13 04:19:22;;;;;;;2.42;0.82;;;;;;;14.41;58.24;100945.84;4974191;28;20178;-42
2020/12/13 04:21:47;;;;;;;3.00;1.00;;;;;;;14.37;58.94;100949.09;4973646;28;20387;-46
2020/12/13 04:24:13;;;;;;;1.70;0.50;;;;;;;14.34;59.08;100941.50;4974680;28;20093;-46
2020/12/13 04:26:38;;;;;;;4.82;1.08;;;;;;;14.43;59.03;100935.63;4972793;28;20036;-47
2020/12/13 04:29:04;;;;;;;0.30;0.20;;;;;;;14.44;58.74;100934.56;4975649;28;20042;-45
2020/12/13 04:31:29;;;;;;;1.42;0.30;;;;;;;14.50;58.29;100931.63;4972807;28;20113;-45
2020/12/13 04:33:55;;;;;;;2.92;1.45;;;;;;;14.45;58.27;100939.69;4977529;28;20069;-43
2020/12/13 04:36:20;;;;;;;5.47;1.00;;;;;;;14.48;58.44;100943.75;4971591;28;20053;-44
2020/12/13 04:38:45;;;;;;;5.68;0.75;;;;;;;14.51;58.10;100943.22;4976013;28;20658;-45
2020/12/13 04:41:11;;;;;;;1.80;1.08;;;;;;;14.48;58.61;100946.44;4970221;28;20745;-44
2020/12/13 04:43:37;;;;;;;12.80;1.08;;;;;;;14.42;58.40;100959.09;4977671;28;20162;-44
2020/12/13 04:46:03;;;;;;;5.57;1.30;;;;;;;14.48;58.47;100957.22;4970235;28;20170;-43
2020/12/13 04:48:29;;;;;;;3.25;1.50;;;;;;;14.50;58.56;100964.00;4977268;28;20118;-45
2020/12/13 04:50:59;;;;;;;4.32;0.35;;;;;;;14.47;58.88;100958.31;4969970;28;20183;-42
2020/12/13 04:53:27;;;;;;;2.90;0.77;;;;;;;14.50;58.62;100961.31;4982657;28;20037;-46
2020/12/13 04:55:54;;;;;;;1.10;0.60;;;;;;;14.54;58.73;100948.13;4970587;28;20741;-44
2020/12/13 04:58:21;;;;;;;1.27;0.57;;;;;;;14.49;58.95;100950.78;4976291;28;20042;-45
2020/12/13 05:00:54;;;;;;;1.63;0.30;;;;;;;14.45;59.19;100938.88;4973895;28;20236;-42
2020/12/13 05:03:20;;;;;;;4.22;1.02;;;;;;;14.50;59.05;100941.63;4978386;28;20077;-45
2020/12/13 05:05:46;;;;;;;3.47;1.27;;;;;;;14.50;59.28;100944.31;4975223;28;20081;-44
2020/12/13 05:08:11;;;;;;;0.93;0.35;;;;;;;14.44;59.26;100950.75;4974550;28;20423;-41
2020/12/13 05:10:38;;;;;;;1.42;0.55;;;;;;;14.41;59.57;100959.34;4986089;28;20044;-46
2020/12/13 05:13:07;;;;;;;0.47;0.32;;;;;;;14.46;59.19;100971.00;4982846;28;20062;-43
2020/12/13 05:15:34;;;;;;;1.38;0.95;;;;;;;14.47;59.45;100977.22;4974184;28;20048;-43
2020/12/13 05:18:00;;;;;;;0.73;0.30;;;;;;;14.40;59.55;100984.72;4973007;28;20121;-44
2020/12/13 05:20:29;;;;;;;2.15;1.02;;;;;;;14.43;59.59;100986.88;4973685;28;20133;-42
2020/12/13 05:22:56;;;;;;;4.47;1.13;;;;;;;14.43;59.96;100984.19;4972715;28;20085;-43
2020/12/13 05:25:49;;;;;;;1.95;1.15;;;;;;;14.40;59.99;100988.22;4972507;28;20042;-42
2020/12/13 05:28:17;;;;;;;1.13;0.63;;;;;;;14.43;59.66;100986.88;4977121;28;20035;-44
2020/12/13 05:30:47;;;;;;;1.40;0.60;;;;;;;14.43;59.95;100987.72;4974228;28;20069;-43
2020/12/13 05:33:27;;;;;;;2.15;0.50;;;;;;;14.48;59.76;100990.44;4972813;28;20027;-44
2020/12/13 05:36:18;;;;;;;7.80;1.42;;;;;;;14.53;59.62;100990.47;4983275;28;20058;-45
2020/12/13 05:38:45;;;;;;;10.38;1.15;;;;;;;14.56;59.39;100991.84;4985606;28;20046;-44
2020/12/13 05:41:13;;;;;;;3.45;1.42;;;;;;;14.53;59.89;100984.25;4985620;28;20042;-45
2020/12/13 05:43:49;;;;;;;0.32;0.20;;;;;;;14.49;59.75;100988.53;4983467;28;20039;-44
2020/12/13 05:51:40;;;;;;;0.82;0.45;;;;;;;14.47;60.16;100978.00;4978976;28;20097;-41
2020/12/13 05:54:19;;;;;;;3.83;1.55;;;;;;;14.51;60.26;100981.00;4976387;28;20081;-42
2020/12/13 05:56:49;;;;;;;4.03;1.40;;;;;;;14.48;60.23;100989.59;4972551;28;20053;-46
2020/12/13 05:59:14;;;;;;;10.25;2.25;;;;;;;14.46;60.65;100986.34;4983570;28;20387;-45
2020/12/13 06:01:46;;;;;;;2.85;1.00;;;;;;;14.46;60.91;100986.34;4976572;28;20042;-44
2020/12/13 06:04:15;;;;;;;0.88;0.80;;;;;;;14.43;60.69;100985.00;4970412;28;20477;-43
2020/12/13 06:06:44;;;;;;;2.63;0.98;;;;;;;14.40;61.03;100984.72;4979267;28;20491;-43
2020/12/13 06:09:14;;;;;;;2.05;0.93;;;;;;;14.36;61.21;100990.63;4970274;28;20141;-43
2020/12/13 06:11:45;;;;;;;2.25;0.65;;;;;;;14.29;61.19;100987.34;4980410;28;20038;-42
2020/12/13 06:14:20;;;;;;;8.95;1.25;;;;;;;14.27;61.90;100988.63;4973286;28;20101;-50
2020/12/13 06:16:46;;;;;;;1.35;0.60;;;;;;;14.17;61.67;100992.88;4979177;28;20479;-44
2020/12/13 06:19:14;;;;;;;1.63;0.82;;;;;;;14.19;61.72;100998.84;4973916;28;20047;-43
2020/12/13 06:21:42;;;;;;;2.75;0.75;;;;;;;14.17;61.75;100998.28;4981842;28;20045;-46
2020/12/13 06:24:08;;;;;;;11.05;1.17;;;;;;;14.02;62.98;101005.44;4973313;28;20035;-45
2020/12/13 06:26:35;;;;;;;1.50;0.93;;;;;;;13.84;63.12;100993.94;4980388;28;20125;-44
2020/12/13 06:29:03;;;;;;;4.03;0.95;;;;;;;13.77;63.57;101001.41;4972905;28;20043;-44
2020/12/13 06:31:29;;;;;;;2.95;1.27;;;;;;;13.90;62.97;101014.50;4979678;28;20148;-42
2020/12/13 06:33:54;;;;;;;7.72;1.02;;;;;;;13.86;63.14;101007.97;4972688;28;20784;-44
2020/12/13 06:36:24;;;;;;;1.85;0.47;;;;;;;13.86;63.11;101010.66;4979409;28;20073;-44
2020/12/13 06:38:53;;;;;;;2.17;0.65;;;;;;;13.68;63.86;101019.91;4972469;28;20030;-44
2020/12/13 06:41:22;;;;;;;3.90;1.10;;;;;;;13.59;64.11;101021.44;4978683;28;20117;-44
2020/12/13 06:43:55;;;;;;;5.43;0.90;;;;;;;13.53;64.38;101025.13;4984189;28;20759;-46
2020/12/13 06:46:23;;;;;;;12.48;1.88;;;;;;;13.51;64.61;101025.38;4980513;28;20463;-44
2020/12/13 06:48:48;;;;;;;1.85;0.60;;;;;;;13.48;64.53;101025.06;4973762;28;20121;-44
2020/12/13 06:51:27;;;;;;;1.92;0.95;;;;;;;13.47;64.82;101023.47;4978862;28;20181;-47
2020/12/13 06:53:53;;;;;;;4.97;2.47;;;;;;;13.47;64.77;101026.16;4985725;28;20050;-42
2020/12/13 06:56:20;;;;;;;7.60;1.95;;;;;;;13.44;64.80;101030.16;4980843;28;20117;-42
2020/12/13 06:58:55;;;;;;;3.20;1.88;;;;;;;13.49;64.54;101035.59;4985110;28;20038;-47
2020/12/13 07:01:35;;;;;;;7.20;2.33;;;;;;;13.52;65.03;101043.19;4974536;28;20379;-46
2020/12/13 07:04:29;;;;;;;4.88;1.05;;;;;;;13.58;64.69;101049.44;4980794;28;20047;-47
2020/12/13 07:06:59;;;;;;;5.07;1.67;;;;;;;13.58;64.46;101062.91;4983416;28;20038;-42
2020/12/13 07:09:25;;;;;;;2.53;2.05;;;;;;;13.54;64.64;101076.06;4974351;28;20130;-43
2020/12/13 07:11:52;;;;;;;12.30;2.83;;;;;;;13.45;64.73;101066.81;4974537;28;20045;-44
2020/12/13 07:14:20;;;;;;;5.03;2.25;;;;;;;13.46;64.56;101065.72;4979323;28;20100;-47
2020/12/13 07:16:48;;;;;;;4.47;1.85;;;;;;;13.34;65.48;101068.56;4984102;28;20038;-43
2020/12/13 07:19:15;;;;;;;2.15;1.30;;;;;;;13.43;64.59;101066.25;4974040;28;20038;-46
2020/12/13 07:21:43;;;;;;;17.30;2.85;;;;;;;13.46;65.06;101073.81;4975852;28;20049;-42
2020/12/13 07:24:10;;;;;;;5.50;2.70;;;;;;;13.44;65.45;101065.16;4974467;28;20058;-44
2020/12/13 07:26:37;;;;;;;28.15;10.35;;;;;;;13.42;66.24;101075.38;4976697;28;20128;-41
2020/12/13 07:29:05;;;;;;;7.25;1.50;;;;;;;13.29;66.34;101071.16;4987119;28;20042;-42
2020/12/13 07:31:36;;;;;;;3.67;2.05;;;;;;;13.22;66.26;101079.41;4986186;28;20125;-42
2020/12/13 07:34:05;;;;;;;11.75;3.17;;;;;;;13.27;65.93;101072.44;4980395;28;20069;-45
2020/12/13 07:36:32;;;;;;;6.63;4.47;;;;;;;13.16;65.89;101074.19;4980806;28;20038;-45
2020/12/13 07:38:57;;;;;;;5.45;3.08;;;;;;;13.08;66.73;101075.44;4974714;28;20043;-47
2020/12/13 07:41:25;;;;;;;8.80;4.90;;;;;;;13.07;66.43;101078.38;4975361;28;20042;-43
2020/12/13 07:43:54;;;;;;;13.05;5.03;;;;;;;13.07;66.36;101081.88;4979639;28;20046;-42
2020/12/13 07:46:21;;;;;;;7.47;5.25;;;;;;;13.04;66.97;101091.28;4978969;28;20794;-43
2020/12/13 07:49:06;;;;;;;13.77;5.75;;;;;;;13.13;66.31;101101.59;4985773;28;20129;-42
2020/12/13 07:51:33;;;;;;;5.00;3.22;;;;;;;13.12;66.87;101108.06;4985780;28;20161;-42
2020/12/13 07:54:18;;;;;;;41.13;28.67;;;;;;;13.19;66.13;101112.22;4974387;28;20468;-43
2020/12/13 07:56:50;;;;;;;12.88;7.07;;;;;;;13.17;65.86;101092.81;4976201;28;20038;-42
2020/12/13 07:59:16;;;;;;;;;;;;;;;13.21;65.95;101099.31;4974858;28;20042;-44
2020/12/13 08:01:44;;;;;;;12.55;7.30;;;;;;;13.16;66.29;101098.44;4975660;28;19925;-46
2020/12/13 08:04:11;;;;;;;9.77;6.93;;;;;;;13.04;67.12;101099.34;4976285;28;20064;-44
2020/12/13 08:06:36;;;;;;;16.23;6.80;;;;;;;13.02;66.99;101092.56;4982490;28;20467;-41
2020/12/13 08:09:14;;;;;;;15.70;10.07;;;;;;;13.08;66.75;101093.44;4973985;28;20043;-42
2020/12/13 08:11:40;;;;;;;29.63;10.88;;;;;;;13.08;66.95;101098.84;4976032;28;20046;-44
2020/12/13 08:14:07;;;;;;;16.73;14.15;;;;;;;13.04;66.72;101104.75;4973789;28;20042;-48
2020/12/13 08:16:34;;;;;;;14.32;7.78;;;;;;;13.16;66.51;101117.28;4977407;28;20038;-44
2020/12/13 08:19:16;;;;;;;12.38;6.93;;;;;;;13.17;66.59;101092.00;4974007;28;20681;-42
2020/12/13 08:22:01;;;;;;;7.00;4.80;;;;;;;13.28;65.75;101104.53;4976059;28;20069;-41
2020/12/13 08:24:27;;;;;;;5.05;4.53;;;;;;;13.24;66.17;101098.81;4975146;28;20034;-44
2020/12/13 08:26:57;;;;;;;5.25;3.67;;;;;;;13.23;65.74;101109.84;4974316;28;20090;-44
2020/12/13 08:29:22;;;;;;;4.60;3.30;;;;;;;13.23;66.29;101102.56;4974342;28;20049;-43
2020/12/13 08:31:49;;;;;;;12.48;5.90;;;;;;;13.18;66.01;101094.44;4974993;28;20038;-43
2020/12/13 08:34:23;;;;;;;9.25;6.45;;;;;;;13.24;66.64;101085.34;4973248;28;20746;-43
2020/12/13 08:36:54;;;;;;;5.63;3.42;;;;;;;13.23;66.44;101089.09;4983255;28;20046;-42
2020/12/13 08:39:30;;;;;;;7.07;5.20;;;;;;;13.16;66.22;101093.03;4973617;28;20045;-44
2020/12/13 08:41:58;;;;;;;7.47;4.90;;;;;;;13.05;66.69;101087.50;4973549;28;20053;-44
2020/12/13 08:44:25;;;;;;;13.95;6.50;;;;;;;13.13;66.79;101088.97;4974327;28;20046;-42
2020/12/13 08:46:51;;;;;;;11.63;7.47;;;;;;;13.20;66.54;101091.47;4986970;28;20407;-43
2020/12/13 08:49:24;;;;;;;9.38;6.32;;;;;;;13.15;66.52;101089.53;4986915;28;20042;-47
2020/12/13 08:51:49;;;;;;;12.27;8.05;;;;;;;13.12;66.96;101108.88;4974262;28;20114;-43
2020/12/13 08:54:15;;;;;;;12.60;9.05;;;;;;;13.18;66.54;101121.38;4983171;28;20052;-43
2020/12/13 08:56:42;;;;;;;12.95;9.68;;;;;;;13.13;66.48;101112.38;4982654;28;20038;-42
2020/12/13 08:59:08;;;;;;;20.58;9.50;;;;;;;13.06;67.21;101115.25;4981334;28;20042;-44
2020/12/13 09:01:38;;;;;;;15.18;10.68;;;;;;;13.15;66.95;101121.84;4982671;28;20065;-46
2020/12/13 09:04:20;;;;;;;29.90;21.75;;;;;;;13.15;66.75;101129.13;4969868;28;20038;-43
2020/12/13 09:06:54;;;;;;;32.75;24.98;;;;;;;13.07;67.58;101127.66;4977426;28;20689;-45
2020/12/13 09:09:20;;;;;;;26.73;20.20;;;;;;;12.99;67.52;101144.19;4970223;28;20121;-45
2020/12/13 09:11:46;;;;;;;23.58;17.90;;;;;;;12.95;67.97;101140.38;4976498;28;20038;-44
2020/12/13 09:14:12;;;;;;;26.73;12.77;;;;;;;12.92;67.62;101141.69;4969728;28;20050;-45
2020/12/13 09:16:37;;;;;;;14.95;11.20;;;;;;;12.94;67.72;101147.66;4977112;28;20348;-43
2020/12/13 09:19:08;;;;;;;19.70;14.80;;;;;;;12.89;68.29;101152.13;4973632;28;20039;-47
2020/12/13 09:21:48;;;;;;;16.25;12.23;;;;;;;13.01;67.52;101142.91;4976445;28;20053;-43
2020/12/13 09:24:14;;;;;;;16.90;10.32;;;;;;;12.97;67.46;101147.16;4970017;28;20043;-46
2020/12/13 09:26:40;;;;;;;31.15;12.43;;;;;;;12.98;67.23;101145.28;4977099;28;20034;-43
2020/12/13 09:29:06;;;;;;;31.08;17.75;;;;;;;12.95;68.05;101143.06;4976102;28;20446;-47
2020/12/13 09:31:31;;;;;;;21.23;14.10;;;;;;;13.04;67.55;101152.34;4977600;28;20476;-45
2020/12/13 09:33:57;;;;;;;25.63;15.45;;;;;;;13.21;67.05;101150.47;4973079;28;20065;-46
2020/12/13 09:36:22;;;;;;;18.75;11.10;;;;;;;13.40;66.16;101140.28;4978283;28;20070;-45
2020/12/13 09:38:48;;;;;;;29.10;13.98;;;;;;;13.72;65.63;101138.78;4969424;28;20038;-44
2020/12/13 09:41:20;;;;;;;23.55;20.70;;;;;;;14.09;64.78;101146.22;4980834;28;20039;-45
2020/12/13 09:43:47;;;;;;;17.17;13.27;;;;;;;14.49;63.57;101147.72;4983412;28;20543;-46
2020/12/13 09:46:17;;;;;;;10.38;6.40;;;;;;;14.86;61.76;101152.41;4986510;28;20034;-44
2020/12/13 09:48:43;;;;;;;7.70;6.65;;;;;;;15.16;60.11;101156.41;4987198;28;20053;-43
2020/12/13 09:51:08;;;;;;;9.38;5.22;;;;;;;16.66;57.64;101155.91;4988321;28;20165;-52
2020/12/13 09:53:33;;;;;;;4.90;3.63;;;;;;;17.80;53.60;101135.66;4976515;28;20034;-53
2020/12/13 09:55:59;;;;;;;5.20;4.10;;;;;;;17.63;53.03;101133.28;4988032;28;20542;-53
2020/12/13 09:58:25;;;;;;;4.82;3.15;;;;;;;17.56;53.48;101125.44;4988063;28;20030;-56
2020/12/13 10:00:50;;;;;;;34.67;29.05;;;;;;;17.32;53.52;101138.78;4988155;28;20050;-55
2020/12/13 10:03:15;;;;;;;7.57;4.60;;;;;;;17.54;52.89;101124.91;4989787;28;20110;-56
2020/12/13 10:05:59;;;;;;;6.15;3.88;;;;;;;17.62;53.11;101135.19;4982573;28;20093;-56
2020/12/13 10:11:09;;;;;;;10.55;1.88;;;;;;;17.69;49.48;101134.88;4976048;28;20079;-57
2020/12/13 10:13:35;;;;;;;6.75;3.05;;;;;;;17.85;48.70;101139.16;4977770;28;20070;-56
2020/12/13 10:16:00;;;;;;;4.82;2.03;;;;;;;18.02;49.02;101136.13;4976510;28;20042;-55
2020/12/13 10:18:26;;;;;;;14.40;5.35;;;;;;;18.20;48.97;101131.13;4976950;28;20035;-58
2020/12/13 10:20:51;;;;;;;16.75;14.02;;;;;;;17.90;49.34;101122.91;4977199;28;20047;-59
2020/12/13 10:23:16;;;;;;;11.20;9.15;;;;;;;17.80;49.93;101127.53;4976273;28;20038;-59
2020/12/13 10:25:46;;;;;;;7.00;4.32;;;;;;;17.98;49.94;101131.53;4977849;28;20040;-58
2020/12/13 10:28:12;;;;;;;2.65;1.45;;;;;;;18.25;47.10;101133.81;4975883;28;20038;-58
2020/12/13 10:30:37;;;;;;;4.03;2.20;;;;;;;18.62;46.03;101133.28;4977803;28;20499;-59
2020/12/13 10:33:03;;;;;;;18.40;2.28;;;;;;;18.96;44.98;101135.19;4976022;28;20035;-58
2020/12/13 10:35:28;;;;;;;4.30;2.05;;;;;;;19.28;44.68;101120.19;4977398;28;20053;-60
2020/12/13 10:37:53;;;;;;;7.38;3.13;;;;;;;19.34;44.77;101120.97;4975237;28;20077;-58
2020/12/13 10:40:19;;;;;;;14.00;5.20;;;;;;;19.45;45.37;101130.59;4976042;28;20047;-58
2020/12/13 10:42:45;;;;;;;6.20;2.72;;;;;;;19.56;43.97;101132.09;4986894;28;20041;-59
2020/12/13 10:45:11;;;;;;;37.28;8.15;;;;;;;19.88;43.34;101141.56;4988614;28;20100;-59
2020/12/13 10:47:36;;;;;;;22.17;9.52;;;;;;;19.84;44.99;101135.06;4987574;28;20104;-61
2020/12/13 10:50:02;;;;;;;59.65;14.60;;;;;;;20.05;44.78;101132.88;4981338;28;20061;-58
2020/12/13 10:52:27;;;;;;;8.18;6.85;;;;;;;19.71;43.85;101133.84;4982107;28;20117;-59
2020/12/13 10:54:53;;;;;;;4.47;2.70;;;;;;;19.64;42.63;101127.94;4975846;28;20549;-60
2020/12/13 10:57:18;;;;;;;13.05;3.95;;;;;;;19.73;43.69;101141.72;4995844;28;20031;-55
2020/12/13 10:59:44;;;;;;;17.42;9.38;;;;;;;19.77;43.68;101145.50;4987246;28;20463;-62
2020/12/13 11:02:10;;;;;;;6.68;2.30;;;;;;;19.94;44.58;101128.69;4987519;28;20031;-57
2020/12/13 11:04:37;;;;;;;11.80;6.07;;;;;;;19.86;43.75;101124.69;4984170;28;20072;-58
2020/12/13 11:07:02;;;;;;;5.35;2.53;;;;;;;19.87;43.52;101125.50;4979652;28;20043;-60
2020/12/13 11:09:28;;;;;;;10.02;3.65;;;;;;;19.99;44.29;101123.97;4975017;28;20054;-62
2020/12/13 11:11:53;;;;;;;4.40;2.28;;;;;;;20.20;44.46;101129.94;4975446;28;20073;-58
2020/12/13 11:14:18;;;;;;;5.40;2.63;;;;;;;20.06;43.85;101128.25;4974840;28;20503;-59
2020/12/13 11:16:47;;;;;;;7.05;4.38;;;;;;;20.35;42.47;101107.13;4980570;28;20815;-57
2020/12/13 11:19:13;;;;;;;16.50;6.18;;;;;;;20.77;42.57;101105.38;4975181;28;20078;-58
2020/12/13 11:21:45;;;;;;;16.85;8.98;;;;;;;20.72;41.83;101115.53;4976831;28;20062;-58
2020/12/13 11:24:12;;;;;;;3.92;2.30;;;;;;;20.29;42.07;101102.84;4974591;28;20110;-59
2020/12/13 11:26:38;;;;;;;10.18;6.85;;;;;;;20.48;43.60;101121.09;4976343;28;20030;-60
2020/12/13 11:29:04;;;;;;;20.58;11.68;;;;;;;20.98;42.85;101121.34;4975030;28;20055;-58
2020/12/13 11:31:29;;;;;;;12.93;6.25;;;;;;;20.67;43.71;101115.63;4976137;28;20042;-61